sensor_id;sensor_type;location;lat;lon;timestamp;P1;durP1;ratioP1;P2;durP2;ratioP2
62574;SDS011;53112;45.602;11.904;2023-02-28T00:01:13;12.98;;;7.38;;
62574;SDS011;53112;45.602;11.904;2023-02-28T00:03:40;14.23;;;7.65;;
62574;SDS011;53112;45.602;11.904;2023-02-28T00:06:07;14.35;;;8.05;;
62574;SDS011;53112;45.602;11.904;2023-02-28T00:08:34;13.18;;;8.10;;
62574;SDS011;53112;45.602;11.904;2023-02-28T00:11:02;12.82;;;7.70;;
62574;SDS011;53112;45.602;11.904;2023-02-28T00:13:29;13.60;;;7.70;;
62574;SDS011;53112;45.602;11.904;2023-02-28T00:16:05;12.02;;;7.07;;
62574;SDS011;53112;45.602;11.904;2023-02-28T00:18:34;19.23;;;9.80;;
62574;SDS011;53112;45.602;11.904;2023-02-28T00:21:00;14.60;;;7.78;;
62574;SDS011;53112;45.602;11.904;2023-02-28T00:25:52;12.93;;;7.05;;
62574;SDS011;53112;45.602;11.904;2023-02-28T00:28:18;15.15;;;8.27;;
62574;SDS011;53112;45.602;11.904;2023-02-28T00:30:44;16.85;;;9.13;;
62574;SDS011;53112;45.602;11.904;2023-02-28T00:33:11;14.65;;;8.75;;
62574;SDS011;53112;45.602;11.904;2023-02-28T00:35:36;19.60;;;10.88;;
62574;SDS011;53112;45.602;11.904;2023-02-28T00:38:02;18.63;;;9.88;;
62574;SDS011;53112;45.602;11.904;2023-02-28T00:40:28;13.85;;;7.90;;
62574;SDS011;53112;45.602;11.904;2023-02-28T00:42:55;18.55;;;9.43;;
62574;SDS011;53112;45.602;11.904;2023-02-28T00:45:21;17.70;;;9.98;;
62574;SDS011;53112;45.602;11.904;2023-02-28T00:47:47;16.10;;;9.05;;
62574;SDS011;53112;45.602;11.904;2023-02-28T00:50:18;15.40;;;8.38;;
62574;SDS011;53112;45.602;11.904;2023-02-28T00:52:45;12.23;;;7.95;;
62574;SDS011;53112;45.602;11.904;2023-02-28T00:55:11;15.38;;;8.00;;
62574;SDS011;53112;45.602;11.904;2023-02-28T00:57:37;17.45;;;9.45;;
62574;SDS011;53112;45.602;11.904;2023-02-28T01:00:04;13.75;;;7.88;;
62574;SDS011;53112;45.602;11.904;2023-02-28T01:02:30;14.13;;;7.55;;
62574;SDS011;53112;45.602;11.904;2023-02-28T01:04:56;15.60;;;8.20;;
62574;SDS011;53112;45.602;11.904;2023-02-28T01:07:22;12.10;;;6.75;;
62574;SDS011;53112;45.602;11.904;2023-02-28T01:09:48;11.80;;;7.13;;
62574;SDS011;53112;45.602;11.904;2023-02-28T01:12:14;10.85;;;6.57;;
62574;SDS011;53112;45.602;11.904;2023-02-28T01:14:41;11.20;;;6.32;;
62574;SDS011;53112;45.602;11.904;2023-02-28T01:17:07;11.05;;;6.22;;
62574;SDS011;53112;45.602;11.904;2023-02-28T01:19:33;12.30;;;7.03;;
62574;SDS011;53112;45.602;11.904;2023-02-28T01:22:04;12.20;;;6.60;;
62574;SDS011;53112;45.602;11.904;2023-02-28T01:24:30;10.75;;;6.38;;
62574;SDS011;53112;45.602;11.904;2023-02-28T01:26:57;10.95;;;6.63;;
62574;SDS011;53112;45.602;11.904;2023-02-28T01:29:23;12.32;;;6.85;;
62574;SDS011;53112;45.602;11.904;2023-02-28T01:31:49;11.00;;;6.68;;
62574;SDS011;53112;45.602;11.904;2023-02-28T01:34:15;12.48;;;7.22;;
62574;SDS011;53112;45.602;11.904;2023-02-28T01:36:44;11.25;;;6.88;;
62574;SDS011;53112;45.602;11.904;2023-02-28T01:39:10;10.43;;;6.22;;
62574;SDS011;53112;45.602;11.904;2023-02-28T01:41:37;11.55;;;6.78;;
62574;SDS011;53112;45.602;11.904;2023-02-28T01:44:05;13.00;;;7.07;;
62574;SDS011;53112;45.602;11.904;2023-02-28T01:46:52;10.65;;;6.30;;
62574;SDS011;53112;45.602;11.904;2023-02-28T01:49:17;11.38;;;6.78;;
62574;SDS011;53112;45.602;11.904;2023-02-28T01:51:52;10.55;;;6.28;;
62574;SDS011;53112;45.602;11.904;2023-02-28T01:54:26;10.85;;;6.38;;
62574;SDS011;53112;45.602;11.904;2023-02-28T01:57:10;12.40;;;6.80;;
62574;SDS011;53112;45.602;11.904;2023-02-28T01:59:59;12.25;;;6.65;;
62574;SDS011;53112;45.602;11.904;2023-02-28T02:02:32;12.70;;;6.85;;
62574;SDS011;53112;45.602;11.904;2023-02-28T02:05:08;13.68;;;7.35;;
62574;SDS011;53112;45.602;11.904;2023-02-28T02:07:38;13.77;;;7.00;;
62574;SDS011;53112;45.602;11.904;2023-02-28T02:10:14;11.88;;;6.30;;
62574;SDS011;53112;45.602;11.904;2023-02-28T02:15:17;11.95;;;6.53;;
62574;SDS011;53112;45.602;11.904;2023-02-28T02:17:52;12.02;;;6.82;;
62574;SDS011;53112;45.602;11.904;2023-02-28T02:20:37;11.00;;;6.95;;
62574;SDS011;53112;45.602;11.904;2023-02-28T02:23:24;12.32;;;6.38;;
62574;SDS011;53112;45.602;11.904;2023-02-28T02:26:03;11.38;;;6.05;;
62574;SDS011;53112;45.602;11.904;2023-02-28T02:37:13;11.40;;;6.00;;
62574;SDS011;53112;45.602;11.904;2023-02-28T02:40:01;10.90;;;6.45;;
62574;SDS011;53112;45.602;11.904;2023-02-28T02:47:41;10.52;;;5.95;;
62574;SDS011;53112;45.602;11.904;2023-02-28T02:50:11;12.98;;;7.10;;
62574;SDS011;53112;45.602;11.904;2023-02-28T02:52:43;13.20;;;6.93;;
62574;SDS011;53112;45.602;11.904;2023-02-28T02:55:15;12.63;;;6.40;;
62574;SDS011;53112;45.602;11.904;2023-02-28T02:57:47;10.80;;;6.38;;
62574;SDS011;53112;45.602;11.904;2023-02-28T03:00:23;12.57;;;6.68;;
62574;SDS011;53112;45.602;11.904;2023-02-28T03:02:55;11.80;;;7.35;;
62574;SDS011;53112;45.602;11.904;2023-02-28T03:06:04;13.23;;;7.10;;
62574;SDS011;53112;45.602;11.904;2023-02-28T03:08:12;13.25;;;7.07;;
62574;SDS011;53112;45.602;11.904;2023-02-28T03:10:40;12.70;;;7.68;;
62574;SDS011;53112;45.602;11.904;2023-02-28T03:18:53;11.98;;;7.18;;
62574;SDS011;53112;45.602;11.904;2023-02-28T03:21:43;10.95;;;6.82;;
62574;SDS011;53112;45.602;11.904;2023-02-28T03:26:56;12.40;;;6.65;;
62574;SDS011;53112;45.602;11.904;2023-02-28T03:32:00;12.15;;;6.95;;
62574;SDS011;53112;45.602;11.904;2023-02-28T03:34:37;12.18;;;6.95;;
62574;SDS011;53112;45.602;11.904;2023-02-28T03:37:11;13.45;;;7.22;;
62574;SDS011;53112;45.602;11.904;2023-02-28T03:39:45;13.52;;;7.40;;
62574;SDS011;53112;45.602;11.904;2023-02-28T03:42:15;11.70;;;7.07;;
62574;SDS011;53112;45.602;11.904;2023-02-28T03:44:46;13.85;;;7.40;;
62574;SDS011;53112;45.602;11.904;2023-02-28T03:47:31;11.93;;;6.90;;
62574;SDS011;53112;45.602;11.904;2023-02-28T03:50:02;12.98;;;7.03;;
62574;SDS011;53112;45.602;11.904;2023-02-28T03:52:38;10.45;;;6.28;;
62574;SDS011;53112;45.602;11.904;2023-02-28T03:55:11;11.52;;;7.03;;
62574;SDS011;53112;45.602;11.904;2023-02-28T04:00:27;13.13;;;7.07;;
62574;SDS011;53112;45.602;11.904;2023-02-28T04:02:59;12.75;;;7.20;;
62574;SDS011;53112;45.602;11.904;2023-02-28T04:05:26;12.75;;;6.93;;
62574;SDS011;53112;45.602;11.904;2023-02-28T04:07:52;12.13;;;6.63;;
62574;SDS011;53112;45.602;11.904;2023-02-28T04:10:19;11.07;;;6.80;;
62574;SDS011;53112;45.602;11.904;2023-02-28T04:12:45;11.60;;;6.78;;
62574;SDS011;53112;45.602;11.904;2023-02-28T04:15:11;11.07;;;6.68;;
62574;SDS011;53112;45.602;11.904;2023-02-28T04:17:37;12.82;;;6.50;;
62574;SDS011;53112;45.602;11.904;2023-02-28T04:20:03;11.88;;;6.90;;
62574;SDS011;53112;45.602;11.904;2023-02-28T04:22:34;11.23;;;6.78;;
62574;SDS011;53112;45.602;11.904;2023-02-28T04:25:01;12.05;;;7.13;;
62574;SDS011;53112;45.602;11.904;2023-02-28T04:27:27;12.73;;;7.25;;
62574;SDS011;53112;45.602;11.904;2023-02-28T04:29:53;10.20;;;6.55;;
62574;SDS011;53112;45.602;11.904;2023-02-28T04:32:19;12.40;;;6.95;;
62574;SDS011;53112;45.602;11.904;2023-02-28T04:34:44;15.55;;;7.32;;
62574;SDS011;53112;45.602;11.904;2023-02-28T04:37:10;10.82;;;6.70;;
62574;SDS011;53112;45.602;11.904;2023-02-28T04:39:37;11.60;;;7.03;;
62574;SDS011;53112;45.602;11.904;2023-02-28T04:42:03;14.00;;;7.25;;
62574;SDS011;53112;45.602;11.904;2023-02-28T04:44:30;11.68;;;6.70;;
62574;SDS011;53112;45.602;11.904;2023-02-28T04:46:56;11.55;;;7.00;;
62574;SDS011;53112;45.602;11.904;2023-02-28T04:49:22;12.65;;;7.15;;
62574;SDS011;53112;45.602;11.904;2023-02-28T04:51:48;12.00;;;7.13;;
62574;SDS011;53112;45.602;11.904;2023-02-28T04:54:15;10.13;;;6.63;;
62574;SDS011;53112;45.602;11.904;2023-02-28T04:56:43;11.13;;;7.00;;
62574;SDS011;53112;45.602;11.904;2023-02-28T04:59:09;11.27;;;6.70;;
62574;SDS011;53112;45.602;11.904;2023-02-28T05:01:34;10.95;;;6.75;;
62574;SDS011;53112;45.602;11.904;2023-02-28T05:04:02;11.63;;;7.00;;
62574;SDS011;53112;45.602;11.904;2023-02-28T05:06:30;12.32;;;6.88;;
62574;SDS011;53112;45.602;11.904;2023-02-28T05:08:57;13.20;;;7.28;;
62574;SDS011;53112;45.602;11.904;2023-02-28T05:11:28;13.55;;;7.10;;
62574;SDS011;53112;45.602;11.904;2023-02-28T05:13:59;12.32;;;7.28;;
62574;SDS011;53112;45.602;11.904;2023-02-28T05:16:34;13.18;;;7.20;;
62574;SDS011;53112;45.602;11.904;2023-02-28T05:19:00;12.30;;;7.18;;
62574;SDS011;53112;45.602;11.904;2023-02-28T05:21:30;13.50;;;7.10;;
62574;SDS011;53112;45.602;11.904;2023-02-28T05:23:58;13.05;;;7.25;;
62574;SDS011;53112;45.602;11.904;2023-02-28T05:26:26;13.65;;;7.22;;
62574;SDS011;53112;45.602;11.904;2023-02-28T05:28:53;13.48;;;7.45;;
62574;SDS011;53112;45.602;11.904;2023-02-28T05:31:19;12.63;;;7.57;;
62574;SDS011;53112;45.602;11.904;2023-02-28T05:33:45;13.43;;;7.63;;
62574;SDS011;53112;45.602;11.904;2023-02-28T05:36:11;11.90;;;7.13;;
62574;SDS011;53112;45.602;11.904;2023-02-28T05:38:37;14.25;;;7.38;;
62574;SDS011;53112;45.602;11.904;2023-02-28T05:41:06;13.90;;;7.53;;
62574;SDS011;53112;45.602;11.904;2023-02-28T05:43:33;12.55;;;7.22;;
62574;SDS011;53112;45.602;11.904;2023-02-28T05:46:01;11.43;;;6.43;;
62574;SDS011;53112;45.602;11.904;2023-02-28T05:48:28;12.95;;;7.63;;
62574;SDS011;53112;45.602;11.904;2023-02-28T05:50:54;20.70;;;8.07;;
62574;SDS011;53112;45.602;11.904;2023-02-28T05:53:20;15.00;;;7.45;;
62574;SDS011;53112;45.602;11.904;2023-02-28T05:55:46;12.90;;;6.85;;
62574;SDS011;53112;45.602;11.904;2023-02-28T05:58:11;13.23;;;7.47;;
62574;SDS011;53112;45.602;11.904;2023-02-28T06:00:37;13.15;;;7.35;;
62574;SDS011;53112;45.602;11.904;2023-02-28T06:03:03;14.80;;;7.68;;
62574;SDS011;53112;45.602;11.904;2023-02-28T06:05:29;12.95;;;7.90;;
62574;SDS011;53112;45.602;11.904;2023-02-28T06:07:54;14.52;;;7.22;;
62574;SDS011;53112;45.602;11.904;2023-02-28T06:10:20;11.50;;;6.90;;
62574;SDS011;53112;45.602;11.904;2023-02-28T06:12:46;12.00;;;7.05;;
62574;SDS011;53112;45.602;11.904;2023-02-28T06:15:12;11.70;;;6.90;;
62574;SDS011;53112;45.602;11.904;2023-02-28T06:17:40;12.50;;;6.85;;
62574;SDS011;53112;45.602;11.904;2023-02-28T06:20:07;13.27;;;7.15;;
62574;SDS011;53112;45.602;11.904;2023-02-28T06:22:34;15.18;;;7.75;;
62574;SDS011;53112;45.602;11.904;2023-02-28T06:25:01;13.77;;;7.40;;
62574;SDS011;53112;45.602;11.904;2023-02-28T06:27:28;15.68;;;8.00;;
62574;SDS011;53112;45.602;11.904;2023-02-28T06:29:54;13.30;;;7.55;;
62574;SDS011;53112;45.602;11.904;2023-02-28T06:32:21;15.27;;;8.25;;
62574;SDS011;53112;45.602;11.904;2023-02-28T06:34:47;14.85;;;8.10;;
62574;SDS011;53112;45.602;11.904;2023-02-28T06:37:13;14.23;;;7.72;;
62574;SDS011;53112;45.602;11.904;2023-02-28T06:39:39;20.73;;;7.68;;
62574;SDS011;53112;45.602;11.904;2023-02-28T06:42:05;15.63;;;7.85;;
62574;SDS011;53112;45.602;11.904;2023-02-28T06:44:31;14.05;;;7.38;;
62574;SDS011;53112;45.602;11.904;2023-02-28T06:47:01;13.57;;;7.47;;
62574;SDS011;53112;45.602;11.904;2023-02-28T06:49:29;12.68;;;7.38;;
62574;SDS011;53112;45.602;11.904;2023-02-28T06:51:56;14.25;;;7.90;;
62574;SDS011;53112;45.602;11.904;2023-02-28T06:54:22;13.80;;;7.50;;
62574;SDS011;53112;45.602;11.904;2023-02-28T06:56:47;13.43;;;7.75;;
62574;SDS011;53112;45.602;11.904;2023-02-28T06:59:14;11.93;;;7.03;;
62574;SDS011;53112;45.602;11.904;2023-02-28T07:01:40;18.90;;;8.23;;
62574;SDS011;53112;45.602;11.904;2023-02-28T07:04:06;15.18;;;8.35;;
62574;SDS011;53112;45.602;11.904;2023-02-28T07:06:32;14.43;;;7.60;;
62574;SDS011;53112;45.602;11.904;2023-02-28T07:08:58;17.40;;;8.57;;
62574;SDS011;53112;45.602;11.904;2023-02-28T07:11:25;16.25;;;8.10;;
62574;SDS011;53112;45.602;11.904;2023-02-28T07:13:55;19.05;;;9.18;;
62574;SDS011;53112;45.602;11.904;2023-02-28T07:16:22;18.60;;;9.50;;
62574;SDS011;53112;45.602;11.904;2023-02-28T07:18:51;20.45;;;9.88;;
62574;SDS011;53112;45.602;11.904;2023-02-28T07:23:47;17.20;;;8.27;;
62574;SDS011;53112;45.602;11.904;2023-02-28T07:28:42;19.30;;;9.15;;
62574;SDS011;53112;45.602;11.904;2023-02-28T07:31:10;15.48;;;9.07;;
62574;SDS011;53112;45.602;11.904;2023-02-28T07:33:36;17.65;;;9.13;;
62574;SDS011;53112;45.602;11.904;2023-02-28T07:36:03;14.50;;;8.13;;
62574;SDS011;53112;45.602;11.904;2023-02-28T07:38:36;13.35;;;7.68;;
62574;SDS011;53112;45.602;11.904;2023-02-28T07:41:02;14.27;;;8.52;;
62574;SDS011;53112;45.602;11.904;2023-02-28T07:43:31;15.60;;;8.73;;
62574;SDS011;53112;45.602;11.904;2023-02-28T07:46:04;16.77;;;7.85;;
62574;SDS011;53112;45.602;11.904;2023-02-28T07:48:32;17.30;;;8.70;;
62574;SDS011;53112;45.602;11.904;2023-02-28T07:50:59;16.80;;;8.45;;
62574;SDS011;53112;45.602;11.904;2023-02-28T07:53:25;16.05;;;8.23;;
62574;SDS011;53112;45.602;11.904;2023-02-28T07:55:55;20.23;;;8.55;;
62574;SDS011;53112;45.602;11.904;2023-02-28T07:58:22;15.52;;;8.50;;
62574;SDS011;53112;45.602;11.904;2023-02-28T08:00:49;14.85;;;7.93;;
62574;SDS011;53112;45.602;11.904;2023-02-28T08:03:16;13.45;;;7.50;;
62574;SDS011;53112;45.602;11.904;2023-02-28T08:05:43;15.27;;;7.65;;
62574;SDS011;53112;45.602;11.904;2023-02-28T08:08:09;16.27;;;8.50;;
62574;SDS011;53112;45.602;11.904;2023-02-28T08:10:36;13.68;;;7.78;;
62574;SDS011;53112;45.602;11.904;2023-02-28T08:13:02;15.73;;;7.80;;
62574;SDS011;53112;45.602;11.904;2023-02-28T08:15:28;13.25;;;7.25;;
62574;SDS011;53112;45.602;11.904;2023-02-28T08:17:54;13.50;;;7.40;;
62574;SDS011;53112;45.602;11.904;2023-02-28T08:20:23;14.65;;;8.05;;
62574;SDS011;53112;45.602;11.904;2023-02-28T08:22:50;14.85;;;7.80;;
62574;SDS011;53112;45.602;11.904;2023-02-28T08:25:15;12.65;;;6.72;;
62574;SDS011;53112;45.602;11.904;2023-02-28T08:27:42;13.55;;;7.10;;
62574;SDS011;53112;45.602;11.904;2023-02-28T08:30:11;12.52;;;7.55;;
62574;SDS011;53112;45.602;11.904;2023-02-28T08:32:38;13.93;;;7.57;;
62574;SDS011;53112;45.602;11.904;2023-02-28T08:35:04;11.70;;;6.88;;
62574;SDS011;53112;45.602;11.904;2023-02-28T08:37:30;12.27;;;7.38;;
62574;SDS011;53112;45.602;11.904;2023-02-28T08:39:56;12.80;;;7.25;;
62574;SDS011;53112;45.602;11.904;2023-02-28T08:42:22;13.00;;;6.93;;
62574;SDS011;53112;45.602;11.904;2023-02-28T08:44:48;13.25;;;7.32;;
62574;SDS011;53112;45.602;11.904;2023-02-28T08:47:14;14.55;;;7.18;;
62574;SDS011;53112;45.602;11.904;2023-02-28T08:49:40;12.98;;;7.25;;
62574;SDS011;53112;45.602;11.904;2023-02-28T08:52:06;11.45;;;7.07;;
62574;SDS011;53112;45.602;11.904;2023-02-28T08:54:32;13.00;;;6.95;;
62574;SDS011;53112;45.602;11.904;2023-02-28T08:56:59;14.20;;;7.22;;
62574;SDS011;53112;45.602;11.904;2023-02-28T08:59:25;12.82;;;7.00;;
62574;SDS011;53112;45.602;11.904;2023-02-28T09:01:51;12.45;;;7.10;;
62574;SDS011;53112;45.602;11.904;2023-02-28T09:04:17;13.00;;;7.30;;
62574;SDS011;53112;45.602;11.904;2023-02-28T09:06:43;12.68;;;6.93;;
62574;SDS011;53112;45.602;11.904;2023-02-28T09:09:10;13.32;;;6.78;;
62574;SDS011;53112;45.602;11.904;2023-02-28T09:11:36;13.90;;;7.20;;
62574;SDS011;53112;45.602;11.904;2023-02-28T09:14:02;11.15;;;6.20;;
62574;SDS011;53112;45.602;11.904;2023-02-28T09:16:29;11.23;;;6.45;;
62574;SDS011;53112;45.602;11.904;2023-02-28T09:18:56;12.90;;;6.70;;
62574;SDS011;53112;45.602;11.904;2023-02-28T09:21:22;12.23;;;6.65;;
62574;SDS011;53112;45.602;11.904;2023-02-28T09:23:49;11.05;;;6.45;;
62574;SDS011;53112;45.602;11.904;2023-02-28T09:28:46;12.60;;;6.65;;
62574;SDS011;53112;45.602;11.904;2023-02-28T09:31:13;11.70;;;5.90;;
62574;SDS011;53112;45.602;11.904;2023-02-28T09:33:40;12.45;;;6.05;;
62574;SDS011;53112;45.602;11.904;2023-02-28T09:36:06;12.70;;;6.45;;
62574;SDS011;53112;45.602;11.904;2023-02-28T09:38:32;13.07;;;6.90;;
62574;SDS011;53112;45.602;11.904;2023-02-28T09:41:00;11.35;;;5.97;;
62574;SDS011;53112;45.602;11.904;2023-02-28T09:43:29;12.00;;;6.75;;
62574;SDS011;53112;45.602;11.904;2023-02-28T09:46:08;12.93;;;5.97;;
62574;SDS011;53112;45.602;11.904;2023-02-28T09:48:56;11.35;;;6.40;;
62574;SDS011;53112;45.602;11.904;2023-02-28T09:54:20;15.50;;;7.47;;
62574;SDS011;53112;45.602;11.904;2023-02-28T09:57:13;12.35;;;5.90;;
62574;SDS011;53112;45.602;11.904;2023-02-28T10:00:07;10.15;;;5.88;;
62574;SDS011;53112;45.602;11.904;2023-02-28T10:05:43;10.88;;;6.22;;
62574;SDS011;53112;45.602;11.904;2023-02-28T10:08:18;11.35;;;6.80;;
62574;SDS011;53112;45.602;11.904;2023-02-28T10:10:51;12.00;;;6.57;;
62574;SDS011;53112;45.602;11.904;2023-02-28T10:16:01;9.82;;;5.85;;
62574;SDS011;53112;45.602;11.904;2023-02-28T10:18:39;11.52;;;6.20;;
62574;SDS011;53112;45.602;11.904;2023-02-28T10:21:24;10.23;;;5.65;;
62574;SDS011;53112;45.602;11.904;2023-02-28T10:23:53;10.45;;;5.70;;
62574;SDS011;53112;45.602;11.904;2023-02-28T10:26:27;10.57;;;6.10;;
62574;SDS011;53112;45.602;11.904;2023-02-28T10:28:55;10.40;;;5.93;;
62574;SDS011;53112;45.602;11.904;2023-02-28T10:31:21;11.10;;;6.22;;
62574;SDS011;53112;45.602;11.904;2023-02-28T10:33:47;11.25;;;5.75;;
62574;SDS011;53112;45.602;11.904;2023-02-28T10:36:14;10.95;;;5.70;;
62574;SDS011;53112;45.602;11.904;2023-02-28T10:38:43;9.63;;;5.43;;
62574;SDS011;53112;45.602;11.904;2023-02-28T10:41:11;12.80;;;5.70;;
62574;SDS011;53112;45.602;11.904;2023-02-28T10:43:41;8.63;;;5.38;;
62574;SDS011;53112;45.602;11.904;2023-02-28T10:48:39;9.55;;;5.72;;
62574;SDS011;53112;45.602;11.904;2023-02-28T10:51:08;9.00;;;5.25;;
62574;SDS011;53112;45.602;11.904;2023-02-28T10:58:49;9.50;;;5.85;;
62574;SDS011;53112;45.602;11.904;2023-02-28T11:01:42;9.90;;;5.70;;
62574;SDS011;53112;45.602;11.904;2023-02-28T11:07:16;9.85;;;5.80;;
62574;SDS011;53112;45.602;11.904;2023-02-28T11:09:54;9.82;;;5.35;;
62574;SDS011;53112;45.602;11.904;2023-02-28T11:15:04;10.52;;;5.68;;
62574;SDS011;53112;45.602;11.904;2023-02-28T11:17:43;9.73;;;5.95;;
62574;SDS011;53112;45.602;11.904;2023-02-28T11:20:19;9.90;;;5.97;;
62574;SDS011;53112;45.602;11.904;2023-02-28T11:22:48;9.10;;;5.50;;
62574;SDS011;53112;45.602;11.904;2023-02-28T11:25:19;8.85;;;5.60;;
62574;SDS011;53112;45.602;11.904;2023-02-28T11:27:47;10.32;;;5.47;;
62574;SDS011;53112;45.602;11.904;2023-02-28T11:32:57;10.68;;;5.57;;
62574;SDS011;53112;45.602;11.904;2023-02-28T11:35:30;10.18;;;5.88;;
62574;SDS011;53112;45.602;11.904;2023-02-28T11:38:00;9.52;;;5.45;;
62574;SDS011;53112;45.602;11.904;2023-02-28T11:40:47;9.35;;;5.30;;
62574;SDS011;53112;45.602;11.904;2023-02-28T11:48:28;10.02;;;5.93;;
62574;SDS011;53112;45.602;11.904;2023-02-28T12:07:39;8.13;;;4.80;;
62574;SDS011;53112;45.602;11.904;2023-02-28T12:10:27;8.90;;;4.97;;
62574;SDS011;53112;45.602;11.904;2023-02-28T12:18:34;7.82;;;4.80;;
62574;SDS011;53112;45.602;11.904;2023-02-28T12:27:11;10.70;;;6.07;;
62574;SDS011;53112;45.602;11.904;2023-02-28T12:29:50;11.00;;;5.57;;
62574;SDS011;53112;45.602;11.904;2023-02-28T12:40:05;9.05;;;5.47;;
62574;SDS011;53112;45.602;11.904;2023-02-28T12:42:45;9.40;;;5.07;;
62574;SDS011;53112;45.602;11.904;2023-02-28T12:47:55;8.13;;;5.07;;
62574;SDS011;53112;45.602;11.904;2023-02-28T12:50:25;9.45;;;5.20;;
62574;SDS011;53112;45.602;11.904;2023-02-28T13:06:42;7.82;;;4.95;;
62574;SDS011;53112;45.602;11.904;2023-02-28T13:09:11;7.80;;;5.03;;
62574;SDS011;53112;45.602;11.904;2023-02-28T13:19:37;8.73;;;5.38;;
62574;SDS011;53112;45.602;11.904;2023-02-28T13:22:15;9.50;;;5.38;;
62574;SDS011;53112;45.602;11.904;2023-02-28T13:29:40;9.45;;;5.70;;
62574;SDS011;53112;45.602;11.904;2023-02-28T13:47:19;8.23;;;4.93;;
62574;SDS011;53112;45.602;11.904;2023-02-28T13:49:47;9.88;;;5.10;;
62574;SDS011;53112;45.602;11.904;2023-02-28T13:52:16;7.65;;;4.88;;
62574;SDS011;53112;45.602;11.904;2023-02-28T14:00:20;8.68;;;5.00;;
62574;SDS011;53112;45.602;11.904;2023-02-28T14:05:29;8.32;;;4.68;;
62574;SDS011;53112;45.602;11.904;2023-02-28T14:07:58;9.10;;;5.22;;
62574;SDS011;53112;45.602;11.904;2023-02-28T14:10:31;8.35;;;5.53;;
62574;SDS011;53112;45.602;11.904;2023-02-28T14:16:16;8.90;;;5.50;;
62574;SDS011;53112;45.602;11.904;2023-02-28T14:18:49;10.48;;;5.60;;
62574;SDS011;53112;45.602;11.904;2023-02-28T14:24:19;8.93;;;5.10;;
62574;SDS011;53112;45.602;11.904;2023-02-28T14:36:04;8.98;;;5.30;;
62574;SDS011;53112;45.602;11.904;2023-02-28T14:38:28;8.13;;;5.13;;
62574;SDS011;53112;45.602;11.904;2023-02-28T14:40:58;9.25;;;5.13;;
62574;SDS011;53112;45.602;11.904;2023-02-28T14:43:28;8.35;;;5.25;;
62574;SDS011;53112;45.602;11.904;2023-02-28T14:45:57;8.00;;;5.25;;
62574;SDS011;53112;45.602;11.904;2023-02-28T14:48:25;8.85;;;5.25;;
62574;SDS011;53112;45.602;11.904;2023-02-28T14:50:53;8.05;;;4.95;;
62574;SDS011;53112;45.602;11.904;2023-02-28T14:53:26;8.13;;;5.13;;
62574;SDS011;53112;45.602;11.904;2023-02-28T14:56:00;8.07;;;5.18;;
62574;SDS011;53112;45.602;11.904;2023-02-28T15:00:57;9.48;;;5.70;;
62574;SDS011;53112;45.602;11.904;2023-02-28T15:03:32;8.63;;;5.20;;
62574;SDS011;53112;45.602;11.904;2023-02-28T15:06:04;8.45;;;5.15;;
62574;SDS011;53112;45.602;11.904;2023-02-28T15:08:37;8.48;;;5.20;;
62574;SDS011;53112;45.602;11.904;2023-02-28T15:11:18;9.88;;;5.15;;
62574;SDS011;53112;45.602;11.904;2023-02-28T15:13:51;8.18;;;5.05;;
62574;SDS011;53112;45.602;11.904;2023-02-28T15:16:20;9.02;;;5.60;;
62574;SDS011;53112;45.602;11.904;2023-02-28T15:21:38;9.90;;;5.20;;
62574;SDS011;53112;45.602;11.904;2023-02-28T15:24:17;9.25;;;5.53;;
62574;SDS011;53112;45.602;11.904;2023-02-28T15:26:57;8.77;;;5.15;;
62574;SDS011;53112;45.602;11.904;2023-02-28T15:29:26;8.55;;;5.32;;
62574;SDS011;53112;45.602;11.904;2023-02-28T15:34:40;8.70;;;5.20;;
62574;SDS011;53112;45.602;11.904;2023-02-28T15:39:52;9.00;;;5.32;;
62574;SDS011;53112;45.602;11.904;2023-02-28T15:42:20;8.45;;;5.10;;
62574;SDS011;53112;45.602;11.904;2023-02-28T15:44:47;10.38;;;5.68;;
62574;SDS011;53112;45.602;11.904;2023-02-28T15:47:20;11.45;;;5.95;;
62574;SDS011;53112;45.602;11.904;2023-02-28T15:49:49;9.93;;;5.90;;
62574;SDS011;53112;45.602;11.904;2023-02-28T15:52:33;10.40;;;5.82;;
62574;SDS011;53112;45.602;11.904;2023-02-28T15:55:07;13.85;;;6.50;;
62574;SDS011;53112;45.602;11.904;2023-02-28T15:57:38;12.95;;;6.18;;
62574;SDS011;53112;45.602;11.904;2023-02-28T16:00:06;11.30;;;6.32;;
62574;SDS011;53112;45.602;11.904;2023-02-28T16:07:36;12.80;;;6.95;;
62574;SDS011;53112;45.602;11.904;2023-02-28T16:10:04;12.85;;;6.25;;
62574;SDS011;53112;45.602;11.904;2023-02-28T16:12:33;13.18;;;6.47;;
62574;SDS011;53112;45.602;11.904;2023-02-28T16:15:05;13.45;;;6.90;;
62574;SDS011;53112;45.602;11.904;2023-02-28T16:17:43;12.35;;;6.38;;
62574;SDS011;53112;45.602;11.904;2023-02-28T16:20:14;13.27;;;6.05;;
62574;SDS011;53112;45.602;11.904;2023-02-28T16:22:44;14.50;;;6.88;;
62574;SDS011;53112;45.602;11.904;2023-02-28T16:25:11;11.43;;;6.10;;
62574;SDS011;53112;45.602;11.904;2023-02-28T16:27:38;11.68;;;6.10;;
62574;SDS011;53112;45.602;11.904;2023-02-28T16:30:05;11.40;;;6.53;;
62574;SDS011;53112;45.602;11.904;2023-02-28T16:32:35;10.35;;;6.32;;
62574;SDS011;53112;45.602;11.904;2023-02-28T16:35:02;9.90;;;6.40;;
62574;SDS011;53112;45.602;11.904;2023-02-28T16:37:30;13.88;;;6.60;;
62574;SDS011;53112;45.602;11.904;2023-02-28T16:39:56;13.00;;;6.50;;
62574;SDS011;53112;45.602;11.904;2023-02-28T16:42:23;12.95;;;6.22;;
62574;SDS011;53112;45.602;11.904;2023-02-28T16:44:52;12.20;;;7.00;;
62574;SDS011;53112;45.602;11.904;2023-02-28T16:47:19;11.25;;;6.97;;
62574;SDS011;53112;45.602;11.904;2023-02-28T16:49:45;11.88;;;6.18;;
62574;SDS011;53112;45.602;11.904;2023-02-28T16:52:13;14.40;;;7.30;;
62574;SDS011;53112;45.602;11.904;2023-02-28T16:54:39;12.25;;;7.15;;
62574;SDS011;53112;45.602;11.904;2023-02-28T16:57:06;13.02;;;7.07;;
62574;SDS011;53112;45.602;11.904;2023-02-28T16:59:46;13.40;;;7.35;;
62574;SDS011;53112;45.602;11.904;2023-02-28T17:02:14;13.43;;;7.35;;
62574;SDS011;53112;45.602;11.904;2023-02-28T17:04:41;13.93;;;7.43;;
62574;SDS011;53112;45.602;11.904;2023-02-28T17:07:11;16.90;;;8.00;;
62574;SDS011;53112;45.602;11.904;2023-02-28T17:09:39;15.65;;;8.63;;
62574;SDS011;53112;45.602;11.904;2023-02-28T17:12:05;14.05;;;7.88;;
62574;SDS011;53112;45.602;11.904;2023-02-28T17:14:32;14.25;;;7.72;;
62574;SDS011;53112;45.602;11.904;2023-02-28T17:16:58;16.10;;;7.80;;
62574;SDS011;53112;45.602;11.904;2023-02-28T17:19:24;14.13;;;7.80;;
62574;SDS011;53112;45.602;11.904;2023-02-28T17:21:50;12.55;;;7.55;;
62574;SDS011;53112;45.602;11.904;2023-02-28T17:24:15;14.43;;;7.60;;
62574;SDS011;53112;45.602;11.904;2023-02-28T17:26:41;13.55;;;7.53;;
62574;SDS011;53112;45.602;11.904;2023-02-28T17:29:18;13.70;;;7.63;;
62574;SDS011;53112;45.602;11.904;2023-02-28T17:31:45;13.25;;;7.53;;
62574;SDS011;53112;45.602;11.904;2023-02-28T17:34:12;15.02;;;7.90;;
62574;SDS011;53112;45.602;11.904;2023-02-28T17:36:44;18.13;;;9.57;;
62574;SDS011;53112;45.602;11.904;2023-02-28T17:39:12;16.80;;;9.32;;
62574;SDS011;53112;45.602;11.904;2023-02-28T17:41:42;14.98;;;9.15;;
62574;SDS011;53112;45.602;11.904;2023-02-28T17:44:08;18.73;;;9.25;;
62574;SDS011;53112;45.602;11.904;2023-02-28T17:46:34;19.35;;;10.23;;